sensor_id;sensor_type;location;lat;lon;timestamp;P1;durP1;ratioP1;P2;durP2;ratioP2
31732;SDS011;18312;51.486;7.144;2024-01-30T00:00:38;1255.97;;;999.90;;
31732;SDS011;18312;51.486;7.144;2024-01-30T00:03:06;1253.88;;;999.90;;
31732;SDS011;18312;51.486;7.144;2024-01-30T00:05:33;1253.70;;;999.90;;
31732;SDS011;18312;51.486;7.144;2024-01-30T00:08:00;1254.65;;;999.90;;
31732;SDS011;18312;51.486;7.144;2024-01-30T00:10:26;1257.90;;;999.90;;
31732;SDS011;18312;51.486;7.144;2024-01-30T00:12:54;1254.95;;;999.90;;
31732;SDS011;18312;51.486;7.144;2024-01-30T00:15:21;1256.63;;;999.90;;
31732;SDS011;18312;51.486;7.144;2024-01-30T00:17:48;1256.43;;;999.90;;
31732;SDS011;18312;51.486;7.144;2024-01-30T00:20:17;1254.15;;;999.90;;
31732;SDS011;18312;51.486;7.144;2024-01-30T00:22:44;1258.22;;;999.90;;
31732;SDS011;18312;51.486;7.144;2024-01-30T00:25:10;1257.73;;;999.90;;
31732;SDS011;18312;51.486;7.144;2024-01-30T00:27:37;1254.65;;;999.90;;
31732;SDS011;18312;51.486;7.144;2024-01-30T00:30:06;1256.15;;;999.90;;
31732;SDS011;18312;51.486;7.144;2024-01-30T00:32:33;1252.00;;;999.90;;
31732;SDS011;18312;51.486;7.144;2024-01-30T00:35:00;1254.03;;;999.90;;
31732;SDS011;18312;51.486;7.144;2024-01-30T00:37:27;1253.35;;;999.90;;
31732;SDS011;18312;51.486;7.144;2024-01-30T00:39:54;1253.05;;;999.90;;
31732;SDS011;18312;51.486;7.144;2024-01-30T00:42:20;1254.07;;;999.90;;
31732;SDS011;18312;51.486;7.144;2024-01-30T00:44:48;1251.47;;;999.90;;
31732;SDS011;18312;51.486;7.144;2024-01-30T00:47:17;1252.30;;;999.90;;
31732;SDS011;18312;51.486;7.144;2024-01-30T00:49:43;1251.97;;;999.90;;
31732;SDS011;18312;51.486;7.144;2024-01-30T00:52:11;1254.60;;;999.90;;
31732;SDS011;18312;51.486;7.144;2024-01-30T00:54:37;1250.93;;;999.90;;
31732;SDS011;18312;51.486;7.144;2024-01-30T00:57:04;1250.30;;;999.90;;
31732;SDS011;18312;51.486;7.144;2024-01-30T00:59:31;1249.13;;;999.90;;
31732;SDS011;18312;51.486;7.144;2024-01-30T01:01:58;1250.50;;;999.90;;
31732;SDS011;18312;51.486;7.144;2024-01-30T01:04:26;1249.93;;;999.90;;
31732;SDS011;18312;51.486;7.144;2024-01-30T01:06:53;1248.18;;;999.90;;
31732;SDS011;18312;51.486;7.144;2024-01-30T01:09:20;1248.47;;;999.90;;
31732;SDS011;18312;51.486;7.144;2024-01-30T01:11:47;1249.20;;;999.90;;
31732;SDS011;18312;51.486;7.144;2024-01-30T01:14:13;1246.78;;;999.90;;
31732;SDS011;18312;51.486;7.144;2024-01-30T01:16:40;1252.15;;;999.90;;
31732;SDS011;18312;51.486;7.144;2024-01-30T01:19:07;1248.25;;;999.90;;
31732;SDS011;18312;51.486;7.144;2024-01-30T01:21:35;1252.20;;;999.90;;
31732;SDS011;18312;51.486;7.144;2024-01-30T01:24:02;1248.82;;;999.90;;
31732;SDS011;18312;51.486;7.144;2024-01-30T01:26:29;1250.40;;;999.90;;
31732;SDS011;18312;51.486;7.144;2024-01-30T01:28:56;1253.07;;;999.90;;
31732;SDS011;18312;51.486;7.144;2024-01-30T01:31:23;1252.97;;;999.90;;
31732;SDS011;18312;51.486;7.144;2024-01-30T01:33:50;1250.22;;;999.90;;
31732;SDS011;18312;51.486;7.144;2024-01-30T01:36:16;1243.47;;;999.90;;
31732;SDS011;18312;51.486;7.144;2024-01-30T01:38:46;1243.43;;;999.90;;
31732;SDS011;18312;51.486;7.144;2024-01-30T01:41:12;1244.82;;;999.90;;
31732;SDS011;18312;51.486;7.144;2024-01-30T01:43:39;1246.72;;;999.90;;
31732;SDS011;18312;51.486;7.144;2024-01-30T01:46:06;1243.05;;;999.90;;
31732;SDS011;18312;51.486;7.144;2024-01-30T01:48:33;1241.35;;;999.90;;
31732;SDS011;18312;51.486;7.144;2024-01-30T01:51:00;1244.38;;;999.90;;
31732;SDS011;18312;51.486;7.144;2024-01-30T01:53:27;1245.50;;;999.90;;
31732;SDS011;18312;51.486;7.144;2024-01-30T01:55:55;1244.43;;;999.90;;
31732;SDS011;18312;51.486;7.144;2024-01-30T01:58:23;1242.22;;;999.90;;
31732;SDS011;18312;51.486;7.144;2024-01-30T02:00:53;1244.55;;;999.90;;
31732;SDS011;18312;51.486;7.144;2024-01-30T02:03:20;1244.97;;;999.90;;
31732;SDS011;18312;51.486;7.144;2024-01-30T02:05:47;1242.15;;;999.90;;
31732;SDS011;18312;51.486;7.144;2024-01-30T02:08:15;1245.50;;;999.90;;
31732;SDS011;18312;51.486;7.144;2024-01-30T02:10:42;1245.68;;;999.90;;
31732;SDS011;18312;51.486;7.144;2024-01-30T02:13:10;1244.25;;;999.90;;
31732;SDS011;18312;51.486;7.144;2024-01-30T02:15:36;1246.50;;;999.90;;
31732;SDS011;18312;51.486;7.144;2024-01-30T02:18:03;1247.03;;;999.90;;
31732;SDS011;18312;51.486;7.144;2024-01-30T02:20:30;1246.07;;;999.90;;
31732;SDS011;18312;51.486;7.144;2024-01-30T02:23:02;1243.72;;;999.90;;
31732;SDS011;18312;51.486;7.144;2024-01-30T02:25:30;1243.80;;;999.90;;
31732;SDS011;18312;51.486;7.144;2024-01-30T02:28:01;1247.43;;;999.90;;
31732;SDS011;18312;51.486;7.144;2024-01-30T02:30:28;1242.35;;;999.90;;
31732;SDS011;18312;51.486;7.144;2024-01-30T02:32:55;1244.85;;;999.90;;
31732;SDS011;18312;51.486;7.144;2024-01-30T02:35:21;1245.75;;;999.90;;
31732;SDS011;18312;51.486;7.144;2024-01-30T02:37:48;1245.78;;;999.90;;
31732;SDS011;18312;51.486;7.144;2024-01-30T02:40:16;1244.27;;;999.90;;
31732;SDS011;18312;51.486;7.144;2024-01-30T02:42:43;1247.60;;;999.90;;
31732;SDS011;18312;51.486;7.144;2024-01-30T02:45:10;1244.03;;;999.90;;
31732;SDS011;18312;51.486;7.144;2024-01-30T02:47:38;1246.82;;;999.90;;
31732;SDS011;18312;51.486;7.144;2024-01-30T02:50:05;1248.30;;;999.90;;
31732;SDS011;18312;51.486;7.144;2024-01-30T02:52:32;1249.57;;;999.90;;
31732;SDS011;18312;51.486;7.144;2024-01-30T02:54:59;1248.30;;;999.90;;
31732;SDS011;18312;51.486;7.144;2024-01-30T02:57:28;1247.05;;;999.90;;
31732;SDS011;18312;51.486;7.144;2024-01-30T02:59:55;1246.53;;;999.90;;
31732;SDS011;18312;51.486;7.144;2024-01-30T03:02:21;1243.57;;;999.90;;
31732;SDS011;18312;51.486;7.144;2024-01-30T03:04:48;1249.35;;;999.90;;
31732;SDS011;18312;51.486;7.144;2024-01-30T03:07:15;1246.07;;;999.90;;
31732;SDS011;18312;51.486;7.144;2024-01-30T03:09:41;1246.60;;;999.90;;
31732;SDS011;18312;51.486;7.144;2024-01-30T03:12:09;1244.63;;;999.90;;
31732;SDS011;18312;51.486;7.144;2024-01-30T03:14:37;1245.70;;;999.90;;
31732;SDS011;18312;51.486;7.144;2024-01-30T03:17:03;1244.67;;;999.90;;
31732;SDS011;18312;51.486;7.144;2024-01-30T03:19:30;1246.18;;;999.90;;
31732;SDS011;18312;51.486;7.144;2024-01-30T03:21:57;1243.22;;;999.90;;
31732;SDS011;18312;51.486;7.144;2024-01-30T03:24:24;1239.20;;;999.90;;
31732;SDS011;18312;51.486;7.144;2024-01-30T03:26:50;1244.50;;;999.90;;
31732;SDS011;18312;51.486;7.144;2024-01-30T03:29:17;1238.53;;;999.90;;
31732;SDS011;18312;51.486;7.144;2024-01-30T03:31:45;1243.82;;;999.90;;
31732;SDS011;18312;51.486;7.144;2024-01-30T03:34:12;1245.97;;;999.90;;
31732;SDS011;18312;51.486;7.144;2024-01-30T03:36:39;1247.10;;;999.90;;
31732;SDS011;18312;51.486;7.144;2024-01-30T03:39:05;1243.95;;;999.90;;
31732;SDS011;18312;51.486;7.144;2024-01-30T03:41:32;1245.32;;;999.90;;
31732;SDS011;18312;51.486;7.144;2024-01-30T03:43:59;1245.25;;;999.90;;
31732;SDS011;18312;51.486;7.144;2024-01-30T03:46:26;1244.20;;;999.90;;
31732;SDS011;18312;51.486;7.144;2024-01-30T03:48:54;1245.75;;;999.90;;
31732;SDS011;18312;51.486;7.144;2024-01-30T03:51:20;1246.30;;;999.90;;
31732;SDS011;18312;51.486;7.144;2024-01-30T03:53:47;1242.35;;;999.90;;
31732;SDS011;18312;51.486;7.144;2024-01-30T03:56:14;1243.40;;;999.90;;
31732;SDS011;18312;51.486;7.144;2024-01-30T03:58:40;1244.35;;;999.90;;
31732;SDS011;18312;51.486;7.144;2024-01-30T04:01:07;1241.60;;;999.90;;
31732;SDS011;18312;51.486;7.144;2024-01-30T04:03:38;1244.00;;;999.90;;
31732;SDS011;18312;51.486;7.144;2024-01-30T04:06:06;1247.25;;;999.90;;
31732;SDS011;18312;51.486;7.144;2024-01-30T04:08:33;1248.32;;;999.90;;
31732;SDS011;18312;51.486;7.144;2024-01-30T04:11:02;1248.72;;;999.90;;
31732;SDS011;18312;51.486;7.144;2024-01-30T04:13:30;1246.07;;;999.90;;
31732;SDS011;18312;51.486;7.144;2024-01-30T04:15:58;1248.38;;;999.90;;
31732;SDS011;18312;51.486;7.144;2024-01-30T04:18:26;1249.80;;;999.90;;
31732;SDS011;18312;51.486;7.144;2024-01-30T04:20:52;1251.60;;;999.90;;
31732;SDS011;18312;51.486;7.144;2024-01-30T04:23:21;1247.07;;;999.90;;
31732;SDS011;18312;51.486;7.144;2024-01-30T04:25:47;1250.40;;;999.90;;
31732;SDS011;18312;51.486;7.144;2024-01-30T04:28:14;1246.07;;;999.90;;
31732;SDS011;18312;51.486;7.144;2024-01-30T04:30:41;1246.28;;;999.90;;
31732;SDS011;18312;51.486;7.144;2024-01-30T04:33:08;1247.15;;;999.90;;
31732;SDS011;18312;51.486;7.144;2024-01-30T04:35:34;1250.40;;;999.90;;
31732;SDS011;18312;51.486;7.144;2024-01-30T04:38:05;1248.68;;;999.90;;
31732;SDS011;18312;51.486;7.144;2024-01-30T04:40:33;1250.28;;;999.90;;
31732;SDS011;18312;51.486;7.144;2024-01-30T04:43:00;1251.47;;;999.90;;
31732;SDS011;18312;51.486;7.144;2024-01-30T04:45:27;1251.93;;;999.90;;
31732;SDS011;18312;51.486;7.144;2024-01-30T04:47:53;1257.75;;;999.90;;
31732;SDS011;18312;51.486;7.144;2024-01-30T04:50:19;1254.82;;;999.90;;
31732;SDS011;18312;51.486;7.144;2024-01-30T04:52:46;1256.22;;;999.90;;
31732;SDS011;18312;51.486;7.144;2024-01-30T04:55:13;1252.57;;;999.90;;
31732;SDS011;18312;51.486;7.144;2024-01-30T04:57:41;1254.97;;;999.90;;
31732;SDS011;18312;51.486;7.144;2024-01-30T05:00:08;1257.33;;;999.90;;
31732;SDS011;18312;51.486;7.144;2024-01-30T05:02:36;1256.13;;;999.90;;
31732;SDS011;18312;51.486;7.144;2024-01-30T05:05:02;1258.05;;;999.90;;
31732;SDS011;18312;51.486;7.144;2024-01-30T05:07:29;1254.63;;;999.90;;
31732;SDS011;18312;51.486;7.144;2024-01-30T05:09:56;1260.25;;;999.90;;
31732;SDS011;18312;51.486;7.144;2024-01-30T05:12:23;1258.13;;;999.90;;
31732;SDS011;18312;51.486;7.144;2024-01-30T05:14:51;1256.00;;;999.90;;
31732;SDS011;18312;51.486;7.144;2024-01-30T05:17:18;1254.22;;;999.90;;
31732;SDS011;18312;51.486;7.144;2024-01-30T05:19:45;1257.23;;;999.90;;
31732;SDS011;18312;51.486;7.144;2024-01-30T05:22:11;1256.65;;;999.90;;
31732;SDS011;18312;51.486;7.144;2024-01-30T05:24:40;1258.43;;;999.90;;
31732;SDS011;18312;51.486;7.144;2024-01-30T05:27:07;1257.82;;;999.90;;
31732;SDS011;18312;51.486;7.144;2024-01-30T05:29:34;1253.53;;;999.90;;
31732;SDS011;18312;51.486;7.144;2024-01-30T05:32:03;1259.43;;;999.90;;
31732;SDS011;18312;51.486;7.144;2024-01-30T05:34:30;1252.95;;;999.90;;
31732;SDS011;18312;51.486;7.144;2024-01-30T05:36:57;1255.50;;;999.90;;
31732;SDS011;18312;51.486;7.144;2024-01-30T05:39:24;1253.47;;;999.90;;
31732;SDS011;18312;51.486;7.144;2024-01-30T05:41:51;1260.43;;;999.90;;
31732;SDS011;18312;51.486;7.144;2024-01-30T05:44:18;1254.85;;;999.90;;
31732;SDS011;18312;51.486;7.144;2024-01-30T05:46:44;1258.40;;;999.90;;
31732;SDS011;18312;51.486;7.144;2024-01-30T05:49:12;1257.77;;;999.90;;
31732;SDS011;18312;51.486;7.144;2024-01-30T05:51:39;1255.95;;;999.90;;
31732;SDS011;18312;51.486;7.144;2024-01-30T05:54:06;1258.38;;;999.90;;
31732;SDS011;18312;51.486;7.144;2024-01-30T05:56:33;1257.80;;;999.90;;
31732;SDS011;18312;51.486;7.144;2024-01-30T05:59:00;1256.63;;;999.90;;
31732;SDS011;18312;51.486;7.144;2024-01-30T06:01:27;1257.47;;;999.90;;
31732;SDS011;18312;51.486;7.144;2024-01-30T06:03:54;1258.13;;;999.90;;
31732;SDS011;18312;51.486;7.144;2024-01-30T06:06:22;1257.13;;;999.90;;
31732;SDS011;18312;51.486;7.144;2024-01-30T06:08:49;1260.60;;;999.90;;
31732;SDS011;18312;51.486;7.144;2024-01-30T06:11:16;1256.47;;;999.90;;
31732;SDS011;18312;51.486;7.144;2024-01-30T06:13:43;1254.07;;;999.90;;
31732;SDS011;18312;51.486;7.144;2024-01-30T06:16:10;1256.10;;;999.90;;
31732;SDS011;18312;51.486;7.144;2024-01-30T06:18:37;1257.45;;;999.90;;
31732;SDS011;18312;51.486;7.144;2024-01-30T06:21:04;1255.25;;;999.90;;
31732;SDS011;18312;51.486;7.144;2024-01-30T06:23:32;1257.38;;;999.90;;
31732;SDS011;18312;51.486;7.144;2024-01-30T06:25:59;1261.15;;;999.90;;
31732;SDS011;18312;51.486;7.144;2024-01-30T06:28:25;1257.20;;;999.90;;
31732;SDS011;18312;51.486;7.144;2024-01-30T06:30:52;1261.75;;;999.90;;
31732;SDS011;18312;51.486;7.144;2024-01-30T06:33:19;1260.15;;;999.90;;
31732;SDS011;18312;51.486;7.144;2024-01-30T06:35:46;1259.60;;;999.90;;
31732;SDS011;18312;51.486;7.144;2024-01-30T06:38:13;1258.47;;;999.90;;
31732;SDS011;18312;51.486;7.144;2024-01-30T06:40:42;1259.20;;;999.90;;
31732;SDS011;18312;51.486;7.144;2024-01-30T06:43:08;1262.22;;;999.90;;
31732;SDS011;18312;51.486;7.144;2024-01-30T06:45:36;1263.35;;;999.90;;
31732;SDS011;18312;51.486;7.144;2024-01-30T06:48:03;1259.20;;;999.90;;
31732;SDS011;18312;51.486;7.144;2024-01-30T06:50:30;1257.32;;;999.90;;
31732;SDS011;18312;51.486;7.144;2024-01-30T06:52:57;1262.65;;;999.90;;
31732;SDS011;18312;51.486;7.144;2024-01-30T06:55:23;1259.77;;;999.90;;
31732;SDS011;18312;51.486;7.144;2024-01-30T06:57:51;1266.45;;;999.90;;
31732;SDS011;18312;51.486;7.144;2024-01-30T07:00:18;1262.20;;;999.90;;
31732;SDS011;18312;51.486;7.144;2024-01-30T07:02:46;1261.05;;;999.90;;
31732;SDS011;18312;51.486;7.144;2024-01-30T07:05:13;1260.32;;;999.90;;
31732;SDS011;18312;51.486;7.144;2024-01-30T07:07:40;1263.35;;;999.90;;
31732;SDS011;18312;51.486;7.144;2024-01-30T07:10:07;1263.83;;;999.90;;
31732;SDS011;18312;51.486;7.144;2024-01-30T07:12:34;1265.82;;;999.90;;
31732;SDS011;18312;51.486;7.144;2024-01-30T07:15:03;1264.93;;;999.90;;
31732;SDS011;18312;51.486;7.144;2024-01-30T07:17:33;1267.28;;;999.90;;
31732;SDS011;18312;51.486;7.144;2024-01-30T07:19:59;1267.95;;;999.90;;
31732;SDS011;18312;51.486;7.144;2024-01-30T07:22:26;1265.35;;;999.90;;
31732;SDS011;18312;51.486;7.144;2024-01-30T07:24:53;1266.00;;;999.90;;
31732;SDS011;18312;51.486;7.144;2024-01-30T07:27:19;1266.63;;;999.90;;
31732;SDS011;18312;51.486;7.144;2024-01-30T07:29:46;1264.93;;;999.90;;
31732;SDS011;18312;51.486;7.144;2024-01-30T07:32:14;1267.83;;;999.90;;
31732;SDS011;18312;51.486;7.144;2024-01-30T07:34:41;1266.05;;;999.90;;
31732;SDS011;18312;51.486;7.144;2024-01-30T07:37:08;1267.38;;;999.90;;
31732;SDS011;18312;51.486;7.144;2024-01-30T07:39:35;1268.93;;;999.90;;
31732;SDS011;18312;51.486;7.144;2024-01-30T07:42:02;1268.78;;;999.90;;
31732;SDS011;18312;51.486;7.144;2024-01-30T07:44:30;1269.80;;;999.90;;
31732;SDS011;18312;51.486;7.144;2024-01-30T07:46:56;1272.97;;;999.90;;
31732;SDS011;18312;51.486;7.144;2024-01-30T07:49:25;1272.38;;;999.90;;
31732;SDS011;18312;51.486;7.144;2024-01-30T07:51:52;1275.05;;;999.90;;
31732;SDS011;18312;51.486;7.144;2024-01-30T07:54:19;1274.55;;;999.90;;
31732;SDS011;18312;51.486;7.144;2024-01-30T07:56:46;1274.97;;;999.90;;
31732;SDS011;18312;51.486;7.144;2024-01-30T07:59:13;1275.97;;;999.90;;
31732;SDS011;18312;51.486;7.144;2024-01-30T08:01:40;1279.63;;;999.90;;
31732;SDS011;18312;51.486;7.144;2024-01-30T08:04:07;1277.65;;;999.90;;
31732;SDS011;18312;51.486;7.144;2024-01-30T08:06:35;1282.32;;;999.90;;
31732;SDS011;18312;51.486;7.144;2024-01-30T08:09:02;1281.47;;;999.90;;
31732;SDS011;18312;51.486;7.144;2024-01-30T08:11:30;1281.80;;;999.90;;
31732;SDS011;18312;51.486;7.144;2024-01-30T08:13:56;1285.55;;;999.90;;
31732;SDS011;18312;51.486;7.144;2024-01-30T08:16:23;1286.70;;;999.90;;
31732;SDS011;18312;51.486;7.144;2024-01-30T08:18:50;1284.57;;;999.90;;
31732;SDS011;18312;51.486;7.144;2024-01-30T08:21:18;1284.45;;;999.90;;
31732;SDS011;18312;51.486;7.144;2024-01-30T08:23:46;1288.30;;;999.90;;
31732;SDS011;18312;51.486;7.144;2024-01-30T08:26:13;1293.13;;;999.90;;
31732;SDS011;18312;51.486;7.144;2024-01-30T08:28:40;1296.22;;;999.90;;
31732;SDS011;18312;51.486;7.144;2024-01-30T08:31:06;1295.13;;;999.90;;
31732;SDS011;18312;51.486;7.144;2024-01-30T08:33:33;1294.80;;;999.90;;
31732;SDS011;18312;51.486;7.144;2024-01-30T08:36:00;1292.35;;;999.90;;
31732;SDS011;18312;51.486;7.144;2024-01-30T08:38:27;1294.63;;;999.90;;
31732;SDS011;18312;51.486;7.144;2024-01-30T08:40:55;1294.75;;;999.90;;
31732;SDS011;18312;51.486;7.144;2024-01-30T08:43:22;1293.57;;;999.90;;
31732;SDS011;18312;51.486;7.144;2024-01-30T08:45:49;1293.38;;;999.90;;
31732;SDS011;18312;51.486;7.144;2024-01-30T08:48:17;1295.75;;;999.90;;
31732;SDS011;18312;51.486;7.144;2024-01-30T08:50:43;1299.97;;;999.90;;
31732;SDS011;18312;51.486;7.144;2024-01-30T08:53:10;1298.80;;;999.90;;
31732;SDS011;18312;51.486;7.144;2024-01-30T08:55:37;1298.57;;;999.90;;
31732;SDS011;18312;51.486;7.144;2024-01-30T08:58:05;1299.53;;;999.90;;
31732;SDS011;18312;51.486;7.144;2024-01-30T09:00:33;1301.93;;;999.90;;
31732;SDS011;18312;51.486;7.144;2024-01-30T09:02:59;1305.60;;;999.90;;
31732;SDS011;18312;51.486;7.144;2024-01-30T09:05:26;1305.18;;;999.90;;
31732;SDS011;18312;51.486;7.144;2024-01-30T09:07:53;1302.97;;;999.90;;
31732;SDS011;18312;51.486;7.144;2024-01-30T09:10:20;1308.00;;;999.90;;
31732;SDS011;18312;51.486;7.144;2024-01-30T09:12:46;1309.10;;;999.90;;
31732;SDS011;18312;51.486;7.144;2024-01-30T09:15:15;1307.50;;;999.90;;
31732;SDS011;18312;51.486;7.144;2024-01-30T09:17:42;1309.80;;;999.90;;
31732;SDS011;18312;51.486;7.144;2024-01-30T09:20:09;1309.10;;;999.90;;
31732;SDS011;18312;51.486;7.144;2024-01-30T09:22:37;1311.20;;;999.90;;
31732;SDS011;18312;51.486;7.144;2024-01-30T09:25:04;1307.90;;;999.90;;
31732;SDS011;18312;51.486;7.144;2024-01-30T09:27:31;1307.50;;;999.90;;
31732;SDS011;18312;51.486;7.144;2024-01-30T09:29:58;1309.25;;;999.90;;
31732;SDS011;18312;51.486;7.144;2024-01-30T09:32:26;1312.25;;;999.90;;
31732;SDS011;18312;51.486;7.144;2024-01-30T09:34:53;1311.00;;;999.90;;
31732;SDS011;18312;51.486;7.144;2024-01-30T09:37:20;1312.70;;;999.90;;
31732;SDS011;18312;51.486;7.144;2024-01-30T09:39:47;1313.22;;;999.90;;
31732;SDS011;18312;51.486;7.144;2024-01-30T09:42:17;1315.30;;;999.90;;
31732;SDS011;18312;51.486;7.144;2024-01-30T09:44:52;1311.70;;;999.90;;
31732;SDS011;18312;51.486;7.144;2024-01-30T09:47:19;1314.47;;;999.90;;
31732;SDS011;18312;51.486;7.144;2024-01-30T09:49:48;1316.05;;;999.90;;
31732;SDS011;18312;51.486;7.144;2024-01-30T09:52:15;1315.15;;;999.90;;
31732;SDS011;18312;51.486;7.144;2024-01-30T09:54:43;1318.80;;;999.90;;
31732;SDS011;18312;51.486;7.144;2024-01-30T09:57:11;1320.75;;;999.90;;
31732;SDS011;18312;51.486;7.144;2024-01-30T09:59:38;1325.50;;;999.90;;
31732;SDS011;18312;51.486;7.144;2024-01-30T10:02:05;1326.05;;;999.90;;
31732;SDS011;18312;51.486;7.144;2024-01-30T10:04:32;1327.18;;;999.90;;
31732;SDS011;18312;51.486;7.144;2024-01-30T10:07:01;1328.28;;;999.90;;
31732;SDS011;18312;51.486;7.144;2024-01-30T10:09:29;1329.43;;;999.90;;
31732;SDS011;18312;51.486;7.144;2024-01-30T10:11:58;1331.83;;;999.90;;
31732;SDS011;18312;51.486;7.144;2024-01-30T10:14:25;1332.13;;;999.90;;
31732;SDS011;18312;51.486;7.144;2024-01-30T10:16:52;1337.82;;;999.90;;
31732;SDS011;18312;51.486;7.144;2024-01-30T10:19:21;1337.22;;;999.90;;
31732;SDS011;18312;51.486;7.144;2024-01-30T10:21:48;1335.15;;;999.90;;
31732;SDS011;18312;51.486;7.144;2024-01-30T10:24:16;1350.70;;;999.90;;
31732;SDS011;18312;51.486;7.144;2024-01-30T10:26:43;1344.00;;;999.90;;
31732;SDS011;18312;51.486;7.144;2024-01-30T10:29:10;1344.10;;;999.90;;
31732;SDS011;18312;51.486;7.144;2024-01-30T10:31:37;1346.07;;;999.90;;
31732;SDS011;18312;51.486;7.144;2024-01-30T10:34:04;1354.43;;;999.90;;
31732;SDS011;18312;51.486;7.144;2024-01-30T10:36:30;1339.20;;;999.90;;
31732;SDS011;18312;51.486;7.144;2024-01-30T10:39:05;1345.63;;;999.90;;
31732;SDS011;18312;51.486;7.144;2024-01-30T10:41:36;1340.07;;;999.90;;
31732;SDS011;18312;51.486;7.144;2024-01-30T10:44:10;1343.45;;;999.90;;
31732;SDS011;18312;51.486;7.144;2024-01-30T10:46:37;1342.60;;;999.90;;
31732;SDS011;18312;51.486;7.144;2024-01-30T10:49:05;1350.00;;;999.90;;
31732;SDS011;18312;51.486;7.144;2024-01-30T10:51:32;1351.75;;;999.90;;
31732;SDS011;18312;51.486;7.144;2024-01-30T10:54:01;1345.75;;;999.90;;
31732;SDS011;18312;51.486;7.144;2024-01-30T10:56:29;1344.75;;;999.90;;
31732;SDS011;18312;51.486;7.144;2024-01-30T10:58:59;1347.70;;;999.90;;
31732;SDS011;18312;51.486;7.144;2024-01-30T11:01:26;1348.82;;;999.90;;
31732;SDS011;18312;51.486;7.144;2024-01-30T11:03:55;1351.50;;;999.90;;
31732;SDS011;18312;51.486;7.144;2024-01-30T11:06:23;1349.38;;;999.90;;
31732;SDS011;18312;51.486;7.144;2024-01-30T11:09:00;1353.72;;;999.90;;
31732;SDS011;18312;51.486;7.144;2024-01-30T11:11:29;1354.00;;;999.90;;
31732;SDS011;18312;51.486;7.144;2024-01-30T11:13:55;1352.65;;;999.90;;
31732;SDS011;18312;51.486;7.144;2024-01-30T11:16:30;1351.80;;;999.90;;
31732;SDS011;18312;51.486;7.144;2024-01-30T11:18:59;1351.63;;;999.90;;
31732;SDS011;18312;51.486;7.144;2024-01-30T11:21:32;1352.65;;;999.90;;
31732;SDS011;18312;51.486;7.144;2024-01-30T11:23:59;1353.07;;;999.90;;
31732;SDS011;18312;51.486;7.144;2024-01-30T11:26:28;1356.57;;;999.90;;
31732;SDS011;18312;51.486;7.144;2024-01-30T11:28:57;1361.67;;;999.90;;
31732;SDS011;18312;51.486;7.144;2024-01-30T11:31:23;1360.78;;;999.90;;
31732;SDS011;18312;51.486;7.144;2024-01-30T11:33:53;1362.55;;;999.90;;
31732;SDS011;18312;51.486;7.144;2024-01-30T11:36:21;1359.63;;;999.90;;
31732;SDS011;18312;51.486;7.144;2024-01-30T11:38:51;1362.70;;;999.90;;
31732;SDS011;18312;51.486;7.144;2024-01-30T11:41:18;1362.45;;;999.90;;
31732;SDS011;18312;51.486;7.144;2024-01-30T11:43:50;1363.63;;;999.90;;
31732;SDS011;18312;51.486;7.144;2024-01-30T11:46:20;1356.47;;;999.90;;
31732;SDS011;18312;51.486;7.144;2024-01-30T11:48:51;1363.30;;;999.90;;
31732;SDS011;18312;51.486;7.144;2024-01-30T11:51:23;1359.15;;;999.90;;
31732;SDS011;18312;51.486;7.144;2024-01-30T11:53:50;1359.70;;;999.90;;
31732;SDS011;18312;51.486;7.144;2024-01-30T11:56:17;1359.03;;;999.90;;
31732;SDS011;18312;51.486;7.144;2024-01-30T11:58:45;1358.28;;;999.90;;
31732;SDS011;18312;51.486;7.144;2024-01-30T12:01:14;1371.43;;;999.90;;
31732;SDS011;18312;51.486;7.144;2024-01-30T12:03:43;1350.75;;;999.90;;
31732;SDS011;18312;51.486;7.144;2024-01-30T12:06:17;1351.63;;;999.90;;
31732;SDS011;18312;51.486;7.144;2024-01-30T12:08:55;1349.90;;;999.90;;
31732;SDS011;18312;51.486;7.144;2024-01-30T12:11:29;1349.57;;;999.90;;
31732;SDS011;18312;51.486;7.144;2024-01-30T12:13:59;1351.90;;;999.90;;
31732;SDS011;18312;51.486;7.144;2024-01-30T12:16:26;1349.20;;;999.90;;
31732;SDS011;18312;51.486;7.144;2024-01-30T12:18:59;1347.43;;;999.90;;
31732;SDS011;18312;51.486;7.144;2024-01-30T12:21:28;1350.45;;;999.90;;
31732;SDS011;18312;51.486;7.144;2024-01-30T12:23:56;1345.75;;;999.90;;
31732;SDS011;18312;51.486;7.144;2024-01-30T12:26:23;1349.18;;;999.90;;
31732;SDS011;18312;51.486;7.144;2024-01-30T12:28:50;1346.85;;;999.90;;
31732;SDS011;18312;51.486;7.144;2024-01-30T12:31:17;1345.68;;;999.90;;
31732;SDS011;18312;51.486;7.144;2024-01-30T12:33:44;1343.03;;;999.90;;
31732;SDS011;18312;51.486;7.144;2024-01-30T12:36:15;1347.55;;;999.90;;
31732;SDS011;18312;51.486;7.144;2024-01-30T12:38:45;1346.50;;;999.90;;
31732;SDS011;18312;51.486;7.144;2024-01-30T12:41:11;1351.90;;;999.90;;
31732;SDS011;18312;51.486;7.144;2024-01-30T12:43:38;1352.30;;;999.90;;
31732;SDS011;18312;51.486;7.144;2024-01-30T12:46:06;1349.88;;;999.90;;
31732;SDS011;18312;51.486;7.144;2024-01-30T12:48:33;1351.63;;;999.90;;
31732;SDS011;18312;51.486;7.144;2024-01-30T12:51:00;1353.45;;;999.90;;
31732;SDS011;18312;51.486;7.144;2024-01-30T12:53:27;1354.00;;;999.90;;
31732;SDS011;18312;51.486;7.144;2024-01-30T12:55:55;1351.83;;;999.90;;
31732;SDS011;18312;51.486;7.144;2024-01-30T12:58:22;1349.00;;;999.90;;
31732;SDS011;18312;51.486;7.144;2024-01-30T13:00:49;1353.47;;;999.90;;
31732;SDS011;18312;51.486;7.144;2024-01-30T13:03:16;1352.82;;;999.90;;
31732;SDS011;18312;51.486;7.144;2024-01-30T13:05:43;1354.35;;;999.90;;
31732;SDS011;18312;51.486;7.144;2024-01-30T13:08:11;1351.68;;;999.90;;
31732;SDS011;18312;51.486;7.144;2024-01-30T13:10:38;1351.72;;;999.90;;
31732;SDS011;18312;51.486;7.144;2024-01-30T13:13:06;1350.85;;;999.90;;
31732;SDS011;18312;51.486;7.144;2024-01-30T13:15:34;1343.63;;;999.90;;
31732;SDS011;18312;51.486;7.144;2024-01-30T13:18:01;1348.40;;;999.90;;
31732;SDS011;18312;51.486;7.144;2024-01-30T13:20:28;1358.32;;;999.90;;
31732;SDS011;18312;51.486;7.144;2024-01-30T13:22:55;1339.07;;;999.90;;
31732;SDS011;18312;51.486;7.144;2024-01-30T13:25:22;1343.22;;;999.90;;
31732;SDS011;18312;51.486;7.144;2024-01-30T13:27:49;1339.38;;;999.90;;
31732;SDS011;18312;51.486;7.144;2024-01-30T13:30:17;1338.57;;;999.90;;
31732;SDS011;18312;51.486;7.144;2024-01-30T13:32:44;1341.90;;;999.90;;
31732;SDS011;18312;51.486;7.144;2024-01-30T13:35:11;1340.95;;;999.90;;
31732;SDS011;18312;51.486;7.144;2024-01-30T13:37:38;1339.20;;;999.90;;
31732;SDS011;18312;51.486;7.144;2024-01-30T13:40:07;1337.55;;;999.90;;
31732;SDS011;18312;51.486;7.144;2024-01-30T13:42:35;1340.47;;;999.90;;
31732;SDS011;18312;51.486;7.144;2024-01-30T13:45:02;1340.43;;;999.90;;